Current Weather

Helsinki
P60°19' E24°57'

2017-05-29
08:30:00
Temperature
14.9 °C / 59 °F
Wind chill
13.7 °C / 57 °F
A.P. 1001.9 hPa
R.H. 84 %
Wind
5.0 m/s


Finland maps



Mobile Weather Page



Sunrise & set in Helsinki
Sunrise & set in Utsjoki

Weather search by city/station or by Location Indicator (LI)

Please do one of the following:
a) Search the weather station by station, city or country name and click Search button
b) Enter the four-character Location Indicator (i.e. EFHK = Helsinki) and click Submit button

a) Search the station:    Help

b) Location Indicator:  

The ICAO Location Indicator code is explained here.

METAR = EFHK 290550Z 36009KT 330V030 9999 SCT016 BKN060 15/11 Q1002 NOSIG

STATIONEFHK
NAMEHelsinki/Vantaa Arpt, --, FI
OBSERVEDMon May 29 08:50 (29.05.2017 05:50 UTC), 5 min ago
TEMPERATURE15.0°C ( 59°F)
WINDCHILL13.9 °C (57 °F)
WINDN (360 degrees) at 10 MPH (9 knots; 4.6 m/s)
HUMIDITY77%
PRESSURE1002 hPa
Forecast